sensor_id;sensor_type;location;lat;lon;timestamp;temperature;humidity
61145;DHT22;47026;51.208;3.288;2022-09-16T00:00:02;14.30;99.90
61145;DHT22;47026;51.208;3.288;2022-09-16T00:02:28;14.30;99.90
61145;DHT22;47026;51.208;3.288;2022-09-16T00:04:53;14.30;99.90
61145;DHT22;47026;51.208;3.288;2022-09-16T00:07:19;14.30;99.90
61145;DHT22;47026;51.208;3.288;2022-09-16T00:09:45;14.20;99.90
61145;DHT22;47026;51.208;3.288;2022-09-16T00:12:10;14.10;99.90
61145;DHT22;47026;51.208;3.288;2022-09-16T00:14:36;14.00;99.90
61145;DHT22;47026;51.208;3.288;2022-09-16T00:17:01;13.90;99.90
61145;DHT22;47026;51.208;3.288;2022-09-16T00:19:27;14.00;99.90
61145;DHT22;47026;51.208;3.288;2022-09-16T00:21:52;13.90;99.90
61145;DHT22;47026;51.208;3.288;2022-09-16T00:24:18;13.90;99.90
61145;DHT22;47026;51.208;3.288;2022-09-16T00:26:43;14.00;99.90
61145;DHT22;47026;51.208;3.288;2022-09-16T00:29:09;14.10;99.90
61145;DHT22;47026;51.208;3.288;2022-09-16T00:31:34;14.10;99.90
61145;DHT22;47026;51.208;3.288;2022-09-16T00:34:00;14.20;99.90
61145;DHT22;47026;51.208;3.288;2022-09-16T00:36:26;14.30;99.90
61145;DHT22;47026;51.208;3.288;2022-09-16T00:38:52;14.40;99.90
61145;DHT22;47026;51.208;3.288;2022-09-16T00:41:22;14.40;99.90
61145;DHT22;47026;51.208;3.288;2022-09-16T00:43:53;14.60;99.90
61145;DHT22;47026;51.208;3.288;2022-09-16T00:46:20;14.60;99.90
61145;DHT22;47026;51.208;3.288;2022-09-16T00:48:47;14.60;99.90
61145;DHT22;47026;51.208;3.288;2022-09-16T00:51:12;14.70;99.90
61145;DHT22;47026;51.208;3.288;2022-09-16T00:53:40;14.60;99.90
61145;DHT22;47026;51.208;3.288;2022-09-16T00:56:06;14.60;99.90
61145;DHT22;47026;51.208;3.288;2022-09-16T01:01:05;14.80;99.90
61145;DHT22;47026;51.208;3.288;2022-09-16T01:03:37;14.70;99.90
61145;DHT22;47026;51.208;3.288;2022-09-16T01:06:04;14.80;99.90
61145;DHT22;47026;51.208;3.288;2022-09-16T01:08:30;14.90;99.90
61145;DHT22;47026;51.208;3.288;2022-09-16T01:10:56;14.90;99.90
61145;DHT22;47026;51.208;3.288;2022-09-16T01:13:22;14.90;99.90
61145;DHT22;47026;51.208;3.288;2022-09-16T01:18:18;14.90;99.90
61145;DHT22;47026;51.208;3.288;2022-09-16T01:23:24;15.00;99.90
61145;DHT22;47026;51.208;3.288;2022-09-16T01:38:54;15.00;99.90
61145;DHT22;47026;51.208;3.288;2022-09-16T01:41:24;14.90;99.90
61145;DHT22;47026;51.208;3.288;2022-09-16T01:49:00;14.80;99.90
61145;DHT22;47026;51.208;3.288;2022-09-16T01:51:29;14.80;99.90
61145;DHT22;47026;51.208;3.288;2022-09-16T01:54:05;14.80;99.90
61145;DHT22;47026;51.208;3.288;2022-09-16T01:57:07;14.90;99.90
61145;DHT22;47026;51.208;3.288;2022-09-16T01:59:30;14.90;99.90
61145;DHT22;47026;51.208;3.288;2022-09-16T02:04:32;14.60;99.90
61145;DHT22;47026;51.208;3.288;2022-09-16T02:06:59;14.60;99.90
61145;DHT22;47026;51.208;3.288;2022-09-16T02:09:29;14.60;99.90
61145;DHT22;47026;51.208;3.288;2022-09-16T02:11:56;14.60;99.90
61145;DHT22;47026;51.208;3.288;2022-09-16T02:14:23;14.60;99.90
61145;DHT22;47026;51.208;3.288;2022-09-16T02:19:21;14.80;99.90
61145;DHT22;47026;51.208;3.288;2022-09-16T02:21:49;14.80;99.90
61145;DHT22;47026;51.208;3.288;2022-09-16T02:24:17;14.80;99.90
61145;DHT22;47026;51.208;3.288;2022-09-16T02:26:45;14.80;99.90
61145;DHT22;47026;51.208;3.288;2022-09-16T02:29:14;14.80;99.90
61145;DHT22;47026;51.208;3.288;2022-09-16T02:31:42;14.90;99.90
61145;DHT22;47026;51.208;3.288;2022-09-16T02:34:12;14.90;99.90
61145;DHT22;47026;51.208;3.288;2022-09-16T02:36:39;15.00;99.90
61145;DHT22;47026;51.208;3.288;2022-09-16T02:39:06;15.10;99.90
61145;DHT22;47026;51.208;3.288;2022-09-16T02:41:36;15.10;99.90
61145;DHT22;47026;51.208;3.288;2022-09-16T02:44:03;15.10;99.90
61145;DHT22;47026;51.208;3.288;2022-09-16T02:48:57;14.90;99.90
61145;DHT22;47026;51.208;3.288;2022-09-16T02:51:28;14.90;99.90
61145;DHT22;47026;51.208;3.288;2022-09-16T02:54:08;14.80;99.90
61145;DHT22;47026;51.208;3.288;2022-09-16T02:56:36;14.80;99.90
61145;DHT22;47026;51.208;3.288;2022-09-16T02:59:05;14.90;99.90
61145;DHT22;47026;51.208;3.288;2022-09-16T03:01:32;14.90;99.90
61145;DHT22;47026;51.208;3.288;2022-09-16T03:03:58;14.70;99.90
61145;DHT22;47026;51.208;3.288;2022-09-16T03:06:24;14.70;99.90
61145;DHT22;47026;51.208;3.288;2022-09-16T03:08:51;14.70;99.90
61145;DHT22;47026;51.208;3.288;2022-09-16T03:19:12;14.70;99.90
61145;DHT22;47026;51.208;3.288;2022-09-16T03:24:08;14.80;99.90
61145;DHT22;47026;51.208;3.288;2022-09-16T03:31:54;14.80;99.90
61145;DHT22;47026;51.208;3.288;2022-09-16T03:34:24;14.90;99.90
61145;DHT22;47026;51.208;3.288;2022-09-16T03:37:01;14.90;99.90
61145;DHT22;47026;51.208;3.288;2022-09-16T03:39:28;15.00;99.90
61145;DHT22;47026;51.208;3.288;2022-09-16T03:41:54;14.90;99.90
61145;DHT22;47026;51.208;3.288;2022-09-16T03:44:31;14.90;99.90
61145;DHT22;47026;51.208;3.288;2022-09-16T03:46:56;14.90;99.90
61145;DHT22;47026;51.208;3.288;2022-09-16T03:49:22;15.00;99.90
61145;DHT22;47026;51.208;3.288;2022-09-16T03:51:48;14.70;99.90
61145;DHT22;47026;51.208;3.288;2022-09-16T03:54:13;14.70;99.90
61145;DHT22;47026;51.208;3.288;2022-09-16T03:56:39;14.60;99.90
61145;DHT22;47026;51.208;3.288;2022-09-16T03:59:05;14.60;99.90
61145;DHT22;47026;51.208;3.288;2022-09-16T04:01:30;14.60;99.90
61145;DHT22;47026;51.208;3.288;2022-09-16T04:03:56;14.20;99.90
61145;DHT22;47026;51.208;3.288;2022-09-16T04:06:22;14.00;99.90
61145;DHT22;47026;51.208;3.288;2022-09-16T04:08:47;13.90;99.90
61145;DHT22;47026;51.208;3.288;2022-09-16T04:11:15;13.80;99.90
61145;DHT22;47026;51.208;3.288;2022-09-16T04:13:40;13.80;99.90
61145;DHT22;47026;51.208;3.288;2022-09-16T04:16:06;13.80;99.90
61145;DHT22;47026;51.208;3.288;2022-09-16T04:18:32;13.90;99.90
61145;DHT22;47026;51.208;3.288;2022-09-16T04:20:58;13.90;99.90
61145;DHT22;47026;51.208;3.288;2022-09-16T04:23:27;13.90;99.90
61145;DHT22;47026;51.208;3.288;2022-09-16T04:25:57;14.00;99.90
61145;DHT22;47026;51.208;3.288;2022-09-16T04:28:23;14.00;99.90
61145;DHT22;47026;51.208;3.288;2022-09-16T04:30:48;13.90;99.90
61145;DHT22;47026;51.208;3.288;2022-09-16T04:33:14;13.80;99.90
61145;DHT22;47026;51.208;3.288;2022-09-16T04:35:40;13.90;99.90
61145;DHT22;47026;51.208;3.288;2022-09-16T04:38:05;13.90;99.90
61145;DHT22;47026;51.208;3.288;2022-09-16T04:40:31;13.90;99.90
61145;DHT22;47026;51.208;3.288;2022-09-16T04:43:00;13.70;99.90
61145;DHT22;47026;51.208;3.288;2022-09-16T04:45:34;13.70;99.90
61145;DHT22;47026;51.208;3.288;2022-09-16T04:48:00;13.70;99.90
61145;DHT22;47026;51.208;3.288;2022-09-16T04:50:26;13.70;99.90
61145;DHT22;47026;51.208;3.288;2022-09-16T04:52:52;13.60;99.90
61145;DHT22;47026;51.208;3.288;2022-09-16T04:55:17;13.60;99.90
61145;DHT22;47026;51.208;3.288;2022-09-16T04:57:43;13.60;99.90
61145;DHT22;47026;51.208;3.288;2022-09-16T05:00:09;13.40;99.90
61145;DHT22;47026;51.208;3.288;2022-09-16T05:02:35;13.50;99.90
61145;DHT22;47026;51.208;3.288;2022-09-16T05:05:01;13.70;99.90
61145;DHT22;47026;51.208;3.288;2022-09-16T05:07:27;13.70;99.90
61145;DHT22;47026;51.208;3.288;2022-09-16T05:09:53;13.60;99.90
61145;DHT22;47026;51.208;3.288;2022-09-16T05:12:19;13.50;99.90
61145;DHT22;47026;51.208;3.288;2022-09-16T05:14:45;13.50;99.90
61145;DHT22;47026;51.208;3.288;2022-09-16T05:17:11;13.60;99.90
61145;DHT22;47026;51.208;3.288;2022-09-16T05:19:36;13.70;99.90
61145;DHT22;47026;51.208;3.288;2022-09-16T05:22:02;13.70;99.90
61145;DHT22;47026;51.208;3.288;2022-09-16T05:24:34;13.70;99.90
61145;DHT22;47026;51.208;3.288;2022-09-16T05:27:02;13.80;99.90
61145;DHT22;47026;51.208;3.288;2022-09-16T05:29:28;13.80;99.90
61145;DHT22;47026;51.208;3.288;2022-09-16T05:31:54;13.70;99.90
61145;DHT22;47026;51.208;3.288;2022-09-16T05:34:20;13.60;99.90
61145;DHT22;47026;51.208;3.288;2022-09-16T05:36:47;13.70;99.90
61145;DHT22;47026;51.208;3.288;2022-09-16T05:39:15;13.70;99.90
61145;DHT22;47026;51.208;3.288;2022-09-16T05:41:43;13.60;99.90
61145;DHT22;47026;51.208;3.288;2022-09-16T05:44:08;13.60;99.90
61145;DHT22;47026;51.208;3.288;2022-09-16T05:46:35;13.60;99.90
61145;DHT22;47026;51.208;3.288;2022-09-16T05:49:01;13.70;99.90
61145;DHT22;47026;51.208;3.288;2022-09-16T05:51:27;13.70;99.90
61145;DHT22;47026;51.208;3.288;2022-09-16T05:53:53;13.70;99.90
61145;DHT22;47026;51.208;3.288;2022-09-16T05:56:22;13.90;99.90
61145;DHT22;47026;51.208;3.288;2022-09-16T05:58:52;13.80;99.90
61145;DHT22;47026;51.208;3.288;2022-09-16T06:01:22;13.90;99.90
61145;DHT22;47026;51.208;3.288;2022-09-16T06:03:48;13.80;99.90
61145;DHT22;47026;51.208;3.288;2022-09-16T06:08:49;13.90;99.90
61145;DHT22;47026;51.208;3.288;2022-09-16T06:11:15;13.90;99.90
61145;DHT22;47026;51.208;3.288;2022-09-16T06:13:41;14.00;99.90
61145;DHT22;47026;51.208;3.288;2022-09-16T06:16:07;14.10;99.90
61145;DHT22;47026;51.208;3.288;2022-09-16T06:18:33;14.10;99.90
61145;DHT22;47026;51.208;3.288;2022-09-16T06:21:01;14.20;99.90
61145;DHT22;47026;51.208;3.288;2022-09-16T06:23:27;14.20;99.90
61145;DHT22;47026;51.208;3.288;2022-09-16T06:26:00;14.30;99.90
61145;DHT22;47026;51.208;3.288;2022-09-16T06:28:26;14.40;99.90
61145;DHT22;47026;51.208;3.288;2022-09-16T06:31:04;14.20;99.90
61145;DHT22;47026;51.208;3.288;2022-09-16T06:33:30;14.10;99.90
61145;DHT22;47026;51.208;3.288;2022-09-16T06:35:56;13.90;99.90
61145;DHT22;47026;51.208;3.288;2022-09-16T06:38:22;13.90;99.90
61145;DHT22;47026;51.208;3.288;2022-09-16T06:40:48;13.80;99.90
61145;DHT22;47026;51.208;3.288;2022-09-16T06:43:14;13.80;99.90
61145;DHT22;47026;51.208;3.288;2022-09-16T06:45:40;13.70;99.90
61145;DHT22;47026;51.208;3.288;2022-09-16T06:48:06;13.60;99.90
61145;DHT22;47026;51.208;3.288;2022-09-16T06:50:31;13.70;99.90
61145;DHT22;47026;51.208;3.288;2022-09-16T06:52:57;13.70;99.90
61145;DHT22;47026;51.208;3.288;2022-09-16T06:55:23;13.70;99.90
61145;DHT22;47026;51.208;3.288;2022-09-16T06:57:49;13.80;99.90
61145;DHT22;47026;51.208;3.288;2022-09-16T07:00:15;13.90;99.90
61145;DHT22;47026;51.208;3.288;2022-09-16T07:02:41;14.20;99.90
61145;DHT22;47026;51.208;3.288;2022-09-16T07:05:06;14.80;99.90
61145;DHT22;47026;51.208;3.288;2022-09-16T07:07:32;15.50;99.90
61145;DHT22;47026;51.208;3.288;2022-09-16T07:10:00;16.30;99.90
61145;DHT22;47026;51.208;3.288;2022-09-16T07:12:27;16.70;99.90
61145;DHT22;47026;51.208;3.288;2022-09-16T07:14:52;16.70;99.90
61145;DHT22;47026;51.208;3.288;2022-09-16T07:17:18;16.60;99.90
61145;DHT22;47026;51.208;3.288;2022-09-16T07:19:44;16.30;99.90
61145;DHT22;47026;51.208;3.288;2022-09-16T07:22:10;15.90;99.90
61145;DHT22;47026;51.208;3.288;2022-09-16T07:24:35;15.80;99.90
61145;DHT22;47026;51.208;3.288;2022-09-16T07:27:01;15.60;99.90
61145;DHT22;47026;51.208;3.288;2022-09-16T07:29:27;15.70;99.90
61145;DHT22;47026;51.208;3.288;2022-09-16T07:31:52;15.70;99.90
61145;DHT22;47026;51.208;3.288;2022-09-16T07:34:18;15.80;99.90
61145;DHT22;47026;51.208;3.288;2022-09-16T07:36:46;15.30;99.90
61145;DHT22;47026;51.208;3.288;2022-09-16T07:39:13;14.80;99.90
61145;DHT22;47026;51.208;3.288;2022-09-16T07:42:43;14.00;99.90
61145;DHT22;47026;51.208;3.288;2022-09-16T07:45:09;13.50;99.90
61145;DHT22;47026;51.208;3.288;2022-09-16T07:47:35;13.50;99.90
61145;DHT22;47026;51.208;3.288;2022-09-16T07:50:01;13.60;99.90
61145;DHT22;47026;51.208;3.288;2022-09-16T07:52:27;13.60;99.90
61145;DHT22;47026;51.208;3.288;2022-09-16T07:54:54;13.50;99.90
61145;DHT22;47026;51.208;3.288;2022-09-16T07:57:21;13.60;99.90
61145;DHT22;47026;51.208;3.288;2022-09-16T07:59:47;13.80;99.90
61145;DHT22;47026;51.208;3.288;2022-09-16T08:02:13;14.10;99.90
61145;DHT22;47026;51.208;3.288;2022-09-16T08:04:39;14.80;99.90
61145;DHT22;47026;51.208;3.288;2022-09-16T08:07:05;15.10;99.90
61145;DHT22;47026;51.208;3.288;2022-09-16T08:09:31;15.30;99.90
61145;DHT22;47026;51.208;3.288;2022-09-16T08:11:58;15.20;99.90
61145;DHT22;47026;51.208;3.288;2022-09-16T08:14:26;15.00;99.90
61145;DHT22;47026;51.208;3.288;2022-09-16T08:16:51;15.00;99.90
61145;DHT22;47026;51.208;3.288;2022-09-16T08:19:18;14.90;99.90
61145;DHT22;47026;51.208;3.288;2022-09-16T08:21:45;14.90;99.90
61145;DHT22;47026;51.208;3.288;2022-09-16T08:24:11;14.80;99.90
61145;DHT22;47026;51.208;3.288;2022-09-16T08:26:37;14.60;99.90
61145;DHT22;47026;51.208;3.288;2022-09-16T08:29:03;14.30;99.90
61145;DHT22;47026;51.208;3.288;2022-09-16T08:31:29;14.20;99.90
61145;DHT22;47026;51.208;3.288;2022-09-16T08:33:55;14.20;99.90
61145;DHT22;47026;51.208;3.288;2022-09-16T08:36:21;14.10;99.90
61145;DHT22;47026;51.208;3.288;2022-09-16T08:38:50;14.00;99.90
61145;DHT22;47026;51.208;3.288;2022-09-16T08:41:40;14.30;99.90
61145;DHT22;47026;51.208;3.288;2022-09-16T08:49:47;15.10;99.90
61145;DHT22;47026;51.208;3.288;2022-09-16T08:52:34;15.00;99.90
61145;DHT22;47026;51.208;3.288;2022-09-16T08:55:33;15.10;99.90
61145;DHT22;47026;51.208;3.288;2022-09-16T08:58:35;15.20;99.90
61145;DHT22;47026;51.208;3.288;2022-09-16T09:03:46;14.60;99.90
61145;DHT22;47026;51.208;3.288;2022-09-16T09:06:54;14.40;99.90
61145;DHT22;47026;51.208;3.288;2022-09-16T09:09:40;14.40;99.90
61145;DHT22;47026;51.208;3.288;2022-09-16T09:12:27;14.60;99.90
61145;DHT22;47026;51.208;3.288;2022-09-16T09:43:04;15.30;99.90
61145;DHT22;47026;51.208;3.288;2022-09-16T09:45:36;15.30;99.90
61145;DHT22;47026;51.208;3.288;2022-09-16T09:48:18;15.30;99.90
61145;DHT22;47026;51.208;3.288;2022-09-16T09:50:50;15.70;99.90
61145;DHT22;47026;51.208;3.288;2022-09-16T09:53:22;15.70;99.90
61145;DHT22;47026;51.208;3.288;2022-09-16T09:55:56;15.50;99.90
61145;DHT22;47026;51.208;3.288;2022-09-16T10:01:33;14.90;99.90
61145;DHT22;47026;51.208;3.288;2022-09-16T10:03:59;14.60;99.90
61145;DHT22;47026;51.208;3.288;2022-09-16T10:06:28;14.10;99.90
61145;DHT22;47026;51.208;3.288;2022-09-16T10:08:56;14.10;99.90
61145;DHT22;47026;51.208;3.288;2022-09-16T10:11:25;14.10;99.90
61145;DHT22;47026;51.208;3.288;2022-09-16T10:13:54;14.20;99.90
61145;DHT22;47026;51.208;3.288;2022-09-16T10:16:25;14.10;99.90
61145;DHT22;47026;51.208;3.288;2022-09-16T10:21:42;14.20;99.90
61145;DHT22;47026;51.208;3.288;2022-09-16T10:26:57;14.30;99.90
61145;DHT22;47026;51.208;3.288;2022-09-16T10:29:23;14.40;99.90
61145;DHT22;47026;51.208;3.288;2022-09-16T10:31:49;14.50;99.90
61145;DHT22;47026;51.208;3.288;2022-09-16T10:34:33;14.80;99.90
61145;DHT22;47026;51.208;3.288;2022-09-16T10:37:14;15.20;99.90
61145;DHT22;47026;51.208;3.288;2022-09-16T10:39:50;15.30;99.90
61145;DHT22;47026;51.208;3.288;2022-09-16T10:42:24;15.50;99.90
61145;DHT22;47026;51.208;3.288;2022-09-16T10:44:53;15.70;99.90
61145;DHT22;47026;51.208;3.288;2022-09-16T10:47:25;15.90;99.90
61145;DHT22;47026;51.208;3.288;2022-09-16T10:49:54;15.90;99.90
61145;DHT22;47026;51.208;3.288;2022-09-16T10:54:48;15.90;99.90
61145;DHT22;47026;51.208;3.288;2022-09-16T10:57:31;16.00;99.90
61145;DHT22;47026;51.208;3.288;2022-09-16T11:05:28;17.00;99.90
61145;DHT22;47026;51.208;3.288;2022-09-16T11:08:06;16.70;99.90
61145;DHT22;47026;51.208;3.288;2022-09-16T11:10:46;16.50;99.90
61145;DHT22;47026;51.208;3.288;2022-09-16T11:13:29;16.30;99.90
61145;DHT22;47026;51.208;3.288;2022-09-16T11:21:35;16.10;99.90
61145;DHT22;47026;51.208;3.288;2022-09-16T11:41:00;15.70;99.90
61145;DHT22;47026;51.208;3.288;2022-09-16T11:43:43;15.60;99.90
61145;DHT22;47026;51.208;3.288;2022-09-16T11:46:32;15.60;99.90
61145;DHT22;47026;51.208;3.288;2022-09-16T11:49:29;15.60;99.90
61145;DHT22;47026;51.208;3.288;2022-09-16T11:52:07;15.70;99.90
61145;DHT22;47026;51.208;3.288;2022-09-16T11:57:28;16.20;99.90
61145;DHT22;47026;51.208;3.288;2022-09-16T12:00:13;16.40;99.90
61145;DHT22;47026;51.208;3.288;2022-09-16T12:02:51;17.20;99.90
61145;DHT22;47026;51.208;3.288;2022-09-16T12:11:12;16.30;99.90
61145;DHT22;47026;51.208;3.288;2022-09-16T12:13:46;16.30;99.90
61145;DHT22;47026;51.208;3.288;2022-09-16T12:16:17;16.30;99.90
61145;DHT22;47026;51.208;3.288;2022-09-16T12:18:50;16.70;99.90
61145;DHT22;47026;51.208;3.288;2022-09-16T12:32:43;16.80;99.90
61145;DHT22;47026;51.208;3.288;2022-09-16T12:35:16;17.50;99.90
61145;DHT22;47026;51.208;3.288;2022-09-16T12:37:48;17.70;99.90
61145;DHT22;47026;51.208;3.288;2022-09-16T12:40:24;16.90;99.90
61145;DHT22;47026;51.208;3.288;2022-09-16T12:43:15;16.40;99.90
61145;DHT22;47026;51.208;3.288;2022-09-16T12:56:58;15.60;99.90
61145;DHT22;47026;51.208;3.288;2022-09-16T13:02:15;19.70;99.90
61145;DHT22;47026;51.208;3.288;2022-09-16T13:04:45;21.30;99.90
61145;DHT22;47026;51.208;3.288;2022-09-16T13:07:28;20.50;99.90
61145;DHT22;47026;51.208;3.288;2022-09-16T13:10:06;20.10;99.90
61145;DHT22;47026;51.208;3.288;2022-09-16T13:12:33;19.10;99.90
61145;DHT22;47026;51.208;3.288;2022-09-16T13:15:00;18.60;99.90
61145;DHT22;47026;51.208;3.288;2022-09-16T13:17:34;18.50;99.90
61145;DHT22;47026;51.208;3.288;2022-09-16T13:20:05;19.00;99.90
61145;DHT22;47026;51.208;3.288;2022-09-16T13:25:21;18.80;99.90
61145;DHT22;47026;51.208;3.288;2022-09-16T13:28:24;18.60;99.90
61145;DHT22;47026;51.208;3.288;2022-09-16T13:30:51;19.10;99.90
61145;DHT22;47026;51.208;3.288;2022-09-16T13:33:19;19.20;99.90
61145;DHT22;47026;51.208;3.288;2022-09-16T13:35:47;18.70;99.90
61145;DHT22;47026;51.208;3.288;2022-09-16T13:41:00;21.10;99.90
61145;DHT22;47026;51.208;3.288;2022-09-16T13:46:01;21.40;99.90
61145;DHT22;47026;51.208;3.288;2022-09-16T13:48:37;22.40;99.90
61145;DHT22;47026;51.208;3.288;2022-09-16T13:51:17;22.20;99.90
61145;DHT22;47026;51.208;3.288;2022-09-16T13:53:46;21.80;99.90
61145;DHT22;47026;51.208;3.288;2022-09-16T14:01:38;19.40;99.90
61145;DHT22;47026;51.208;3.288;2022-09-16T14:04:10;18.90;99.90
61145;DHT22;47026;51.208;3.288;2022-09-16T14:09:58;18.40;99.90
61145;DHT22;47026;51.208;3.288;2022-09-16T14:15:18;17.30;99.90
61145;DHT22;47026;51.208;3.288;2022-09-16T14:17:47;17.10;99.90
61145;DHT22;47026;51.208;3.288;2022-09-16T14:20:15;16.80;99.90
61145;DHT22;47026;51.208;3.288;2022-09-16T14:22:43;16.50;99.90
61145;DHT22;47026;51.208;3.288;2022-09-16T14:25:27;16.00;99.90
61145;DHT22;47026;51.208;3.288;2022-09-16T14:28:15;15.70;99.90
61145;DHT22;47026;51.208;3.288;2022-09-16T14:30:47;16.20;99.90
61145;DHT22;47026;51.208;3.288;2022-09-16T14:33:14;17.50;99.90
61145;DHT22;47026;51.208;3.288;2022-09-16T14:35:43;17.60;99.90
61145;DHT22;47026;51.208;3.288;2022-09-16T14:38:13;17.40;99.90
61145;DHT22;47026;51.208;3.288;2022-09-16T14:40:40;18.20;99.90
61145;DHT22;47026;51.208;3.288;2022-09-16T14:43:08;19.10;99.90
61145;DHT22;47026;51.208;3.288;2022-09-16T14:45:37;20.10;99.90
61145;DHT22;47026;51.208;3.288;2022-09-16T14:48:07;20.40;99.90
61145;DHT22;47026;51.208;3.288;2022-09-16T14:50:40;19.80;99.90
61145;DHT22;47026;51.208;3.288;2022-09-16T14:53:23;19.00;99.90
61145;DHT22;47026;51.208;3.288;2022-09-16T14:55:49;18.00;99.90
61145;DHT22;47026;51.208;3.288;2022-09-16T14:58:15;17.10;99.90
61145;DHT22;47026;51.208;3.288;2022-09-16T15:01:03;16.50;99.90
61145;DHT22;47026;51.208;3.288;2022-09-16T15:03:36;16.30;99.90
61145;DHT22;47026;51.208;3.288;2022-09-16T15:06:10;16.10;99.90
61145;DHT22;47026;51.208;3.288;2022-09-16T15:08:48;16.30;99.90
61145;DHT22;47026;51.208;3.288;2022-09-16T15:11:18;16.00;99.90
61145;DHT22;47026;51.208;3.288;2022-09-16T15:13:45;16.00;99.90
61145;DHT22;47026;51.208;3.288;2022-09-16T15:16:12;15.80;99.90
61145;DHT22;47026;51.208;3.288;2022-09-16T15:21:26;15.60;99.90
61145;DHT22;47026;51.208;3.288;2022-09-16T15:23:55;15.50;99.90
61145;DHT22;47026;51.208;3.288;2022-09-16T15:29:05;16.40;99.90
61145;DHT22;47026;51.208;3.288;2022-09-16T15:31:33;17.00;99.90
61145;DHT22;47026;51.208;3.288;2022-09-16T15:36:58;18.80;99.90
61145;DHT22;47026;51.208;3.288;2022-09-16T15:39:28;19.30;99.90
61145;DHT22;47026;51.208;3.288;2022-09-16T15:42:10;19.90;99.90
61145;DHT22;47026;51.208;3.288;2022-09-16T15:44:45;19.00;99.90
61145;DHT22;47026;51.208;3.288;2022-09-16T15:47:23;17.90;99.90
61145;DHT22;47026;51.208;3.288;2022-09-16T15:50:15;17.90;99.90
61145;DHT22;47026;51.208;3.288;2022-09-16T15:53:00;17.60;99.90
61145;DHT22;47026;51.208;3.288;2022-09-16T15:55:37;16.30;99.90
61145;DHT22;47026;51.208;3.288;2022-09-16T15:58:16;15.80;99.90
61145;DHT22;47026;51.208;3.288;2022-09-16T16:00:56;15.20;99.90
61145;DHT22;47026;51.208;3.288;2022-09-16T16:03:23;14.80;99.90
61145;DHT22;47026;51.208;3.288;2022-09-16T16:05:50;14.50;99.90
61145;DHT22;47026;51.208;3.288;2022-09-16T16:08:36;14.40;99.90
61145;DHT22;47026;51.208;3.288;2022-09-16T16:11:09;14.10;99.90
61145;DHT22;47026;51.208;3.288;2022-09-16T16:13:35;14.00;99.90
61145;DHT22;47026;51.208;3.288;2022-09-16T16:16:01;13.80;99.90
61145;DHT22;47026;51.208;3.288;2022-09-16T16:18:29;13.80;99.90
61145;DHT22;47026;51.208;3.288;2022-09-16T16:20:57;13.60;99.90
61145;DHT22;47026;51.208;3.288;2022-09-16T16:23:23;13.60;99.90
61145;DHT22;47026;51.208;3.288;2022-09-16T16:25:48;13.70;99.90
61145;DHT22;47026;51.208;3.288;2022-09-16T16:28:14;13.50;99.90
61145;DHT22;47026;51.208;3.288;2022-09-16T16:30:40;13.60;99.90
61145;DHT22;47026;51.208;3.288;2022-09-16T16:33:06;13.40;99.90
61145;DHT22;47026;51.208;3.288;2022-09-16T16:35:32;13.40;99.90
61145;DHT22;47026;51.208;3.288;2022-09-16T16:37:57;13.50;99.90
61145;DHT22;47026;51.208;3.288;2022-09-16T16:40:24;13.50;99.90
61145;DHT22;47026;51.208;3.288;2022-09-16T16:42:49;13.50;99.90
61145;DHT22;47026;51.208;3.288;2022-09-16T16:45:15;13.50;99.90
61145;DHT22;47026;51.208;3.288;2022-09-16T16:47:41;13.60;99.90
61145;DHT22;47026;51.208;3.288;2022-09-16T16:50:07;13.60;99.90
61145;DHT22;47026;51.208;3.288;2022-09-16T16:52:33;13.70;99.90
61145;DHT22;47026;51.208;3.288;2022-09-16T16:54:58;13.70;99.90
61145;DHT22;47026;51.208;3.288;2022-09-16T16:57:24;13.70;99.90
61145;DHT22;47026;51.208;3.288;2022-09-16T16:59:49;13.70;99.90
61145;DHT22;47026;51.208;3.288;2022-09-16T17:02:16;13.60;99.90
61145;DHT22;47026;51.208;3.288;2022-09-16T17:04:41;13.50;99.90
61145;DHT22;47026;51.208;3.288;2022-09-16T17:07:07;13.50;99.90
61145;DHT22;47026;51.208;3.288;2022-09-16T17:09:33;13.20;99.90
61145;DHT22;47026;51.208;3.288;2022-09-16T17:11:59;13.30;99.90
61145;DHT22;47026;51.208;3.288;2022-09-16T17:14:27;13.30;99.90
61145;DHT22;47026;51.208;3.288;2022-09-16T17:16:54;13.20;99.90
61145;DHT22;47026;51.208;3.288;2022-09-16T17:19:24;13.10;99.90
61145;DHT22;47026;51.208;3.288;2022-09-16T17:21:51;13.20;99.90
61145;DHT22;47026;51.208;3.288;2022-09-16T17:24:20;12.80;99.90
61145;DHT22;47026;51.208;3.288;2022-09-16T17:26:46;12.70;99.90
61145;DHT22;47026;51.208;3.288;2022-09-16T17:29:12;12.60;99.90
61145;DHT22;47026;51.208;3.288;2022-09-16T17:31:38;12.60;99.90
61145;DHT22;47026;51.208;3.288;2022-09-16T17:34:05;12.50;99.90
61145;DHT22;47026;51.208;3.288;2022-09-16T17:36:33;12.50;99.90
61145;DHT22;47026;51.208;3.288;2022-09-16T17:39:01;12.60;99.90
61145;DHT22;47026;51.208;3.288;2022-09-16T17:41:27;12.60;99.90
61145;DHT22;47026;51.208;3.288;2022-09-16T17:43:53;12.70;99.90
61145;DHT22;47026;51.208;3.288;2022-09-16T17:46:19;12.70;99.90
61145;DHT22;47026;51.208;3.288;2022-09-16T17:48:50;12.80;99.90
61145;DHT22;47026;51.208;3.288;2022-09-16T17:51:16;12.80;99.90
61145;DHT22;47026;51.208;3.288;2022-09-16T17:53:42;12.60;99.90
61145;DHT22;47026;51.208;3.288;2022-09-16T17:56:10;12.50;99.90
61145;DHT22;47026;51.208;3.288;2022-09-16T17:58:38;12.50;99.90
61145;DHT22;47026;51.208;3.288;2022-09-16T18:01:10;12.60;99.90
61145;DHT22;47026;51.208;3.288;2022-09-16T18:03:37;12.40;99.90
61145;DHT22;47026;51.208;3.288;2022-09-16T18:06:17;12.70;99.90
61145;DHT22;47026;51.208;3.288;2022-09-16T18:08:44;12.70;99.90
61145;DHT22;47026;51.208;3.288;2022-09-16T18:11:10;12.90;99.90
61145;DHT22;47026;51.208;3.288;2022-09-16T18:13:36;12.80;99.90
61145;DHT22;47026;51.208;3.288;2022-09-16T18:16:08;12.80;99.90
61145;DHT22;47026;51.208;3.288;2022-09-16T18:18:37;12.70;99.90
61145;DHT22;47026;51.208;3.288;2022-09-16T18:21:04;12.90;99.90
61145;DHT22;47026;51.208;3.288;2022-09-16T18:23:30;12.70;99.90
61145;DHT22;47026;51.208;3.288;2022-09-16T18:25:56;12.80;99.90
61145;DHT22;47026;51.208;3.288;2022-09-16T18:28:26;12.80;99.90
61145;DHT22;47026;51.208;3.288;2022-09-16T18:31:02;12.70;99.90
61145;DHT22;47026;51.208;3.288;2022-09-16T18:33:28;12.70;99.90
61145;DHT22;47026;51.208;3.288;2022-09-16T18:36:13;12.70;99.90
61145;DHT22;47026;51.208;3.288;2022-09-16T18:38:39;12.70;99.90
61145;DHT22;47026;51.208;3.288;2022-09-16T18:41:08;12.60;99.90
61145;DHT22;47026;51.208;3.288;2022-09-16T18:43:35;12.50;99.90
61145;DHT22;47026;51.208;3.288;2022-09-16T18:46:16;12.30;99.90
61145;DHT22;47026;51.208;3.288;2022-09-16T18:48:44;12.30;99.90
61145;DHT22;47026;51.208;3.288;2022-09-16T18:51:21;12.30;99.90
61145;DHT22;47026;51.208;3.288;2022-09-16T18:53:47;12.40;99.90